Terminal Aerodrome Forecast
Issued by NWS Wilmington, OH

Current Version | Previous Version | Graphics & Text | Print | Product List | Glossary On
Versions: 1 2 3 4 5 6 7 8 9 10 11 12 13 14 15 16 17 18 19 20 21 22 23 24 25 26 27 28
577
FTUS41 KILN 042000 AAA
TAFCVG
TAF AMD
KCVG 042000Z 0420/0524 11008KT P6SM VCSH BKN028 OVC060
     FM042200 14008KT 4SM -RA BR OVC012
     FM050000 17006KT 4SM -RA BR OVC006
     FM050300 27008KT P6SM OVC006
     FM051400 20004KT P6SM BKN012
     FM051800 13004KT P6SM SCT015 BKN200=

USA.gov is the U.S. government's official web portal to all federal, state and local government web resources and services.